createdAt,value
2018-03-17T00:00:46.024Z,95.00
2018-03-17T00:03:12.458Z,95.00
2018-03-17T00:05:39.690Z,95.00
2018-03-17T00:08:06.904Z,95.10
2018-03-17T00:10:33.313Z,95.10
2018-03-17T00:13:00.451Z,95.10
2018-03-17T00:15:28.483Z,95.10
2018-03-17T00:17:55.651Z,94.90
2018-03-17T00:20:22.800Z,94.90
2018-03-17T00:22:49.280Z,94.90
2018-03-17T00:25:16.466Z,95.10
2018-03-17T00:27:42.869Z,95.10
2018-03-17T00:30:09.273Z,95.10
2018-03-17T00:32:35.696Z,95.10
2018-03-17T00:35:02.891Z,95.00
2018-03-17T00:37:30.026Z,94.90
2018-03-17T00:39:57.257Z,95.00
2018-03-17T00:42:23.666Z,95.00
2018-03-17T00:44:50.091Z,95.00
2018-03-17T00:47:16.536Z,94.90
2018-03-17T00:49:42.946Z,94.80
2018-03-17T00:52:10.109Z,94.80
2018-03-17T00:54:37.299Z,94.80
2018-03-17T00:57:04.471Z,94.80
2018-03-17T00:59:31.637Z,94.90
2018-03-17T01:01:58.845Z,94.90
2018-03-17T01:04:25.291Z,94.80
2018-03-17T01:06:51.706Z,94.90
2018-03-17T01:09:18.166Z,94.90
2018-03-17T01:11:44.565Z,95.10
2018-03-17T01:14:11.064Z,95.10
2018-03-17T01:16:37.517Z,95.10
2018-03-17T01:19:04.015Z,95.10
2018-03-17T01:21:31.182Z,95.10
2018-03-17T01:23:58.402Z,95.20
2018-03-17T01:26:24.816Z,95.10
2018-03-17T01:28:51.374Z,95.10
2018-03-17T01:31:18.532Z,95.20
2018-03-17T01:33:45.695Z,95.20
2018-03-17T01:36:12.860Z,95.20
2018-03-17T01:38:39.317Z,95.20
2018-03-17T01:41:06.489Z,95.60
2018-03-17T01:43:32.918Z,95.70
2018-03-17T01:45:59.308Z,95.40
2018-03-17T01:48:26.442Z,95.60
2018-03-17T01:50:52.860Z,95.20
2018-03-17T01:53:19.291Z,95.20
2018-03-17T01:55:45.767Z,95.30
2018-03-17T01:58:12.893Z,95.10
2018-03-17T02:00:39.276Z,95.10
2018-03-17T02:03:06.471Z,95.10
2018-03-17T02:05:33.078Z,95.00
2018-03-17T02:07:59.498Z,95.10
2018-03-17T02:10:26.050Z,95.10
2018-03-17T02:12:53.102Z,95.30
2018-03-17T02:15:20.279Z,95.30
2018-03-17T02:17:47.407Z,95.20
2018-03-17T02:20:13.815Z,95.20
2018-03-17T02:22:40.219Z,95.10
2018-03-17T02:25:06.654Z,94.90
2018-03-17T02:27:33.068Z,95.20
2018-03-17T02:30:00.222Z,95.10
2018-03-17T02:32:26.650Z,95.10
2018-03-17T02:34:53.059Z,95.10
2018-03-17T02:37:19.475Z,95.30
2018-03-17T02:39:45.971Z,95.40
2018-03-17T02:42:13.133Z,95.30
2018-03-17T02:44:40.419Z,95.40
2018-03-17T02:47:06.858Z,95.40
2018-03-17T02:49:34.031Z,95.40
2018-03-17T02:52:01.215Z,95.60
2018-03-17T02:54:28.371Z,95.50
2018-03-17T02:56:55.542Z,95.30
2018-03-17T02:59:21.957Z,95.20
2018-03-17T03:01:48.389Z,95.60
2018-03-17T03:04:14.826Z,95.20
2018-03-17T03:06:41.994Z,95.40
2018-03-17T03:09:09.159Z,95.50
2018-03-17T03:11:36.376Z,95.40
2018-03-17T03:14:02.854Z,95.40
2018-03-17T03:16:29.290Z,95.60
2018-03-17T03:18:55.724Z,95.30
2018-03-17T03:21:22.153Z,95.30
2018-03-17T03:23:48.568Z,95.10
2018-03-17T03:26:14.966Z,95.40
2018-03-17T03:28:42.130Z,95.10
2018-03-17T03:31:09.617Z,95.20
2018-03-17T03:33:36.757Z,95.00
2018-03-17T03:36:03.222Z,95.00
2018-03-17T03:38:29.615Z,95.40
2018-03-17T03:40:56.756Z,95.30
2018-03-17T03:43:23.172Z,95.30
2018-03-17T03:45:49.701Z,95.20
2018-03-17T03:48:16.146Z,95.10
2018-03-17T03:50:43.302Z,95.20
2018-03-17T03:53:09.777Z,95.20
2018-03-17T03:55:36.954Z,95.10
2018-03-17T03:58:04.230Z,95.20
2018-03-17T04:00:31.362Z,95.00
2018-03-17T04:03:01.251Z,95.00
2018-03-17T04:05:27.793Z,95.00
2018-03-17T04:07:54.971Z,94.80
2018-03-17T04:10:21.523Z,94.80
2018-03-17T04:12:48.729Z,94.90
2018-03-17T04:15:15.145Z,94.90
2018-03-17T04:17:42.342Z,94.60
2018-03-17T04:20:08.729Z,94.60
2018-03-17T04:22:35.174Z,94.50
2018-03-17T04:25:02.118Z,94.80
2018-03-17T04:27:28.485Z,94.70
2018-03-17T04:29:54.929Z,94.60
2018-03-17T04:32:21.370Z,94.30
2018-03-17T04:34:48.475Z,94.10
2018-03-17T04:37:14.882Z,94.10
2018-03-17T04:39:42.056Z,93.90
2018-03-17T04:42:09.196Z,94.00
2018-03-17T04:44:35.636Z,94.00
2018-03-17T04:47:02.053Z,93.90
2018-03-17T04:49:28.456Z,93.70
2018-03-17T04:51:54.909Z,93.90
2018-03-17T04:54:21.313Z,93.80
2018-03-17T04:56:48.467Z,93.50
2018-03-17T04:59:15.652Z,93.40
2018-03-17T05:01:42.826Z,93.20
2018-03-17T05:04:10.042Z,93.30
2018-03-17T05:06:36.562Z,93.70
2018-03-17T05:09:03.943Z,93.60
2018-03-17T05:11:31.136Z,93.60
2018-03-17T05:13:57.565Z,93.60
2018-03-17T05:16:24.743Z,93.30
2018-03-17T05:18:51.912Z,93.20
2018-03-17T05:21:18.387Z,93.20
2018-03-17T05:23:44.794Z,93.00
2018-03-17T05:26:11.234Z,93.20
2018-03-17T05:28:37.672Z,93.20
2018-03-17T05:31:04.102Z,93.10
2018-03-17T05:33:30.543Z,93.10
2018-03-17T05:35:57.823Z,93.20
2018-03-17T05:38:25.097Z,93.00
2018-03-17T05:40:52.387Z,92.90
2018-03-17T05:43:18.841Z,93.10
2018-03-17T05:45:46.105Z,93.30
2018-03-17T05:48:12.562Z,93.30
2018-03-17T05:50:39.007Z,93.30
2018-03-17T05:53:06.299Z,93.30
2018-03-17T05:55:32.710Z,93.30
2018-03-17T05:57:59.164Z,93.40
2018-03-17T06:00:25.659Z,93.20
2018-03-17T06:02:52.823Z,93.40
2018-03-17T06:05:19.999Z,93.20
2018-03-17T06:07:47.200Z,92.80
2018-03-17T06:10:13.632Z,92.80
2018-03-17T06:12:40.904Z,92.70
2018-03-17T06:15:08.104Z,92.60
2018-03-17T06:17:34.562Z,92.60
2018-03-17T06:20:01.092Z,92.40
2018-03-17T06:22:28.240Z,92.00
2018-03-17T06:24:54.643Z,92.00
2018-03-17T06:27:21.177Z,92.00
2018-03-17T06:29:48.359Z,92.10
2018-03-17T06:32:14.784Z,92.10
2018-03-17T06:34:41.244Z,92.20
2018-03-17T06:37:07.667Z,92.50
2018-03-17T06:39:34.090Z,92.30
2018-03-17T06:42:00.502Z,92.40
2018-03-17T06:44:27.658Z,92.40
2018-03-17T06:46:54.052Z,92.50
2018-03-17T06:49:20.492Z,92.20
2018-03-17T06:51:46.956Z,91.80
2018-03-17T06:54:14.102Z,91.80
2018-03-17T06:56:40.501Z,91.70
2018-03-17T06:59:06.935Z,91.60
2018-03-17T07:01:34.223Z,91.20
2018-03-17T07:04:01.501Z,90.80
2018-03-17T07:06:28.657Z,90.70
2018-03-17T07:08:55.836Z,90.80
2018-03-17T07:11:23.218Z,91.00
2018-03-17T07:13:50.440Z,90.80
2018-03-17T07:16:16.870Z,90.90
2018-03-17T07:18:43.300Z,90.80
2018-03-17T07:21:10.512Z,90.70
2018-03-17T07:23:36.939Z,90.70
2018-03-17T07:26:04.247Z,90.10
2018-03-17T07:28:30.869Z,89.80
2018-03-17T07:30:58.022Z,89.80
2018-03-17T07:33:24.477Z,89.80
2018-03-17T07:35:51.004Z,90.30
2018-03-17T07:38:17.618Z,89.90
2018-03-17T07:40:44.173Z,89.80
2018-03-17T07:43:11.873Z,89.40
2018-03-17T07:45:38.353Z,89.30
2018-03-17T07:48:04.792Z,89.40
2018-03-17T07:50:31.331Z,89.90
2018-03-17T07:52:57.755Z,89.00
2018-03-17T07:55:24.344Z,89.40
2018-03-17T07:57:51.722Z,89.30
2018-03-17T08:00:18.174Z,89.30
2018-03-17T08:02:45.695Z,89.40
2018-03-17T08:05:12.212Z,89.40
2018-03-17T08:07:38.670Z,89.00
2018-03-17T08:10:05.934Z,88.70
2018-03-17T08:12:33.226Z,89.20
2018-03-17T08:14:59.776Z,89.10
2018-03-17T08:17:27.057Z,88.20
2018-03-17T08:19:54.232Z,88.20
2018-03-17T08:22:21.422Z,87.40
2018-03-17T08:24:47.856Z,86.90
2018-03-17T08:27:14.281Z,87.00
2018-03-17T08:29:40.722Z,87.60
2018-03-17T08:32:07.435Z,88.00
2018-03-17T08:34:37.215Z,87.10
2018-03-17T08:37:03.716Z,86.80
2018-03-17T08:39:30.799Z,86.30
2018-03-17T08:41:57.446Z,85.50
2018-03-17T08:44:24.326Z,84.50
2018-03-17T08:46:50.817Z,84.80
2018-03-17T08:49:17.325Z,84.80
2018-03-17T08:51:44.505Z,84.30
2018-03-17T08:54:11.160Z,84.20
2018-03-17T08:56:38.342Z,82.70
2018-03-17T08:59:04.738Z,82.60
2018-03-17T09:01:31.161Z,82.60
2018-03-17T09:03:57.615Z,82.30
2018-03-17T09:06:24.155Z,82.50
2018-03-17T09:08:51.531Z,84.40
2018-03-17T09:11:18.911Z,84.00
2018-03-17T09:13:45.370Z,84.80
2018-03-17T09:16:12.520Z,85.10
2018-03-17T09:18:39.660Z,82.70
2018-03-17T09:21:06.082Z,82.60
2018-03-17T09:23:32.550Z,81.90
2018-03-17T09:25:59.087Z,82.30
2018-03-17T09:28:25.603Z,82.30
2018-03-17T09:30:52.787Z,82.40
2018-03-17T09:33:19.952Z,81.40
2018-03-17T09:35:46.539Z,81.30
2018-03-17T09:38:13.716Z,82.40
2018-03-17T09:40:40.163Z,81.50
2018-03-17T09:43:07.403Z,79.70
2018-03-17T09:45:34.577Z,80.70
2018-03-17T09:48:01.028Z,80.60
2018-03-17T09:50:27.571Z,81.60
2018-03-17T09:52:53.961Z,80.70
2018-03-17T09:55:21.260Z,80.10
2018-03-17T09:57:48.454Z,80.20
2018-03-17T10:00:14.922Z,80.10
2018-03-17T10:03:43.712Z,81.20
2018-03-17T10:06:10.882Z,81.50
2018-03-17T10:08:37.311Z,81.00
2018-03-17T10:11:03.721Z,80.70
2018-03-17T10:13:30.171Z,81.50
2018-03-17T10:15:56.737Z,81.40
2018-03-17T10:18:23.291Z,81.40
2018-03-17T10:20:49.807Z,81.10
2018-03-17T10:23:16.250Z,80.00
2018-03-17T10:25:42.894Z,80.40
2018-03-17T10:28:09.354Z,80.30
2018-03-17T10:30:35.874Z,80.40
2018-03-17T10:33:03.105Z,79.50
2018-03-17T10:35:29.803Z,79.50
2018-03-17T10:37:56.966Z,80.60
2018-03-17T10:40:24.255Z,80.50
2018-03-17T10:42:51.512Z,79.80
2018-03-17T10:45:18.004Z,79.80
2018-03-17T10:47:44.394Z,79.80
2018-03-17T10:50:10.902Z,79.50
2018-03-17T10:52:38.051Z,78.90
2018-03-17T10:55:05.322Z,78.30
2018-03-17T10:57:32.415Z,78.30
2018-03-17T10:59:58.948Z,78.30
2018-03-17T11:02:25.444Z,77.80
2018-03-17T11:04:51.989Z,77.30
2018-03-17T11:07:18.424Z,77.30
2018-03-17T11:09:44.860Z,77.20
2018-03-17T11:12:11.460Z,77.90
2018-03-17T11:14:38.627Z,76.80
2018-03-17T11:17:05.809Z,76.40
2018-03-17T11:19:32.855Z,76.30
2018-03-17T11:22:00.147Z,75.30
2018-03-17T11:24:27.509Z,75.50
2018-03-17T11:26:54.799Z,75.50
2018-03-17T11:29:22.074Z,75.90
2018-03-17T11:31:48.496Z,75.90
2018-03-17T11:34:14.986Z,76.10
2018-03-17T11:36:42.668Z,75.80
2018-03-17T11:39:09.829Z,75.90
2018-03-17T11:41:37.044Z,74.80
2018-03-17T11:44:03.477Z,74.70
2018-03-17T11:46:30.028Z,73.10
2018-03-17T11:48:57.198Z,73.40
2018-03-17T11:51:25.234Z,74.40
2018-03-17T11:53:51.652Z,74.40
2018-03-17T11:56:18.096Z,74.30
2018-03-17T11:58:45.303Z,75.00
2018-03-17T12:01:11.779Z,75.00
2018-03-17T12:03:38.283Z,74.60
2018-03-17T12:06:05.573Z,73.30
2018-03-17T12:08:31.976Z,72.50
2018-03-17T12:10:58.424Z,72.80
2018-03-17T12:13:24.890Z,72.80
2018-03-17T12:15:51.492Z,73.20
2018-03-17T12:18:18.668Z,74.90
2018-03-17T12:20:45.227Z,74.80
2018-03-17T12:23:11.679Z,73.40
2018-03-17T12:25:38.867Z,74.60
2018-03-17T12:28:05.308Z,74.50
2018-03-17T12:30:32.512Z,74.70
2018-03-17T12:32:59.038Z,74.70
2018-03-17T12:35:26.236Z,75.00
2018-03-17T12:37:52.671Z,75.00
2018-03-17T12:40:21.708Z,74.40
2018-03-17T12:42:45.675Z,74.90
2018-03-17T12:45:12.852Z,77.00
2018-03-17T12:47:40.019Z,76.60
2018-03-17T12:50:07.177Z,75.60
2018-03-17T12:52:33.617Z,75.50
2018-03-17T12:55:00.115Z,75.50
2018-03-17T12:57:26.516Z,75.80
2018-03-17T12:59:52.971Z,77.60
2018-03-17T13:02:19.415Z,78.00
2018-03-17T13:04:45.872Z,78.10
2018-03-17T13:07:12.328Z,78.20
2018-03-17T13:09:39.480Z,78.00
2018-03-17T13:12:05.979Z,78.00
2018-03-17T13:14:32.432Z,77.70
2018-03-17T13:16:58.885Z,78.00
2018-03-17T13:19:31.006Z,79.40
2018-03-17T13:21:58.240Z,79.00
2018-03-17T13:24:28.428Z,79.00
2018-03-17T13:27:07.048Z,78.50
2018-03-17T13:29:34.264Z,78.10
2018-03-17T13:32:00.690Z,78.10
2018-03-17T13:34:27.131Z,78.70
2018-03-17T13:37:06.548Z,78.90
2018-03-17T13:39:32.985Z,78.90
2018-03-17T13:41:59.471Z,78.40
2018-03-17T13:44:25.953Z,77.90
2018-03-17T13:46:53.138Z,78.70
2018-03-17T13:49:19.560Z,78.60
2018-03-17T13:51:45.984Z,78.50
2018-03-17T13:54:12.413Z,78.70
2018-03-17T13:56:38.818Z,79.10
2018-03-17T13:59:05.247Z,78.60
2018-03-17T14:01:31.699Z,79.00
2018-03-17T14:03:58.095Z,79.60
2018-03-17T14:06:25.358Z,80.90
2018-03-17T14:08:53.379Z,80.60
2018-03-17T14:11:20.578Z,79.40
2018-03-17T14:13:47.002Z,79.40
2018-03-17T14:16:14.221Z,79.60
2018-03-17T14:18:40.738Z,79.40
2018-03-17T14:21:07.945Z,79.80
2018-03-17T14:23:34.425Z,79.70
2018-03-17T14:26:00.931Z,79.90
2018-03-17T14:28:27.352Z,80.60
2018-03-17T14:30:54.661Z,79.40
2018-03-17T14:33:22.030Z,79.50
2018-03-17T14:35:49.191Z,80.40
2018-03-17T14:38:16.535Z,79.60
2018-03-17T14:40:43.921Z,80.30
2018-03-17T14:46:04.634Z,81.10
2018-03-17T14:48:31.839Z,82.10
2018-03-17T14:50:58.295Z,81.90
2018-03-17T14:53:24.983Z,82.30
2018-03-17T14:55:52.247Z,82.10
2018-03-17T14:58:18.812Z,81.10
2018-03-17T15:00:45.342Z,81.10
2018-03-17T15:03:12.647Z,82.10
2018-03-17T15:05:39.206Z,82.10
2018-03-17T15:08:06.054Z,82.30
2018-03-17T15:10:33.311Z,82.70
2018-03-17T15:13:00.739Z,81.70
2018-03-17T15:15:27.557Z,82.00
2018-03-17T15:17:53.972Z,82.60
2018-03-17T15:20:20.400Z,83.00
2018-03-17T15:22:46.893Z,82.90
2018-03-17T15:25:13.358Z,83.30
2018-03-17T15:27:40.704Z,83.20
2018-03-17T15:30:07.242Z,83.10
2018-03-17T15:32:34.723Z,84.00
2018-03-17T15:35:03.531Z,83.90
2018-03-17T15:37:30.293Z,84.30
2018-03-17T15:39:57.032Z,84.00
2018-03-17T15:42:23.495Z,83.80
2018-03-17T15:44:50.788Z,82.90
2018-03-17T15:47:17.961Z,83.30
2018-03-17T15:49:45.130Z,83.80
2018-03-17T15:52:12.487Z,83.60
2018-03-17T15:54:40.298Z,84.10
2018-03-17T15:57:06.736Z,84.00
2018-03-17T15:59:34.273Z,84.40
2018-03-17T16:02:00.836Z,84.00
2018-03-17T16:04:27.990Z,83.90
2018-03-17T16:06:54.760Z,84.20
2018-03-17T16:09:21.269Z,84.80
2018-03-17T16:11:48.559Z,85.30
2018-03-17T16:14:15.087Z,85.20
2018-03-17T16:16:41.675Z,85.50
2018-03-17T16:19:08.142Z,85.70
2018-03-17T16:21:34.618Z,85.80
2018-03-17T16:24:01.608Z,85.80
2018-03-17T16:26:30.471Z,85.10
2018-03-17T16:28:56.926Z,84.90
2018-03-17T16:31:23.424Z,85.10
2018-03-17T16:33:49.937Z,85.70
2018-03-17T16:36:16.431Z,86.20
2018-03-17T16:38:42.932Z,86.30
2018-03-17T16:41:10.307Z,86.30
2018-03-17T16:43:36.724Z,86.20
2018-03-17T16:46:03.204Z,86.10
2018-03-17T16:48:29.702Z,86.70
2018-03-17T16:50:56.398Z,85.90
2018-03-17T16:53:23.433Z,86.20
2018-03-17T16:55:50.227Z,86.30
2018-03-17T16:58:17.347Z,85.90
2018-03-17T17:00:43.924Z,85.80
2018-03-17T17:03:10.494Z,86.10
2018-03-17T17:05:37.125Z,86.00
2018-03-17T17:08:08.650Z,87.40
2018-03-17T17:10:35.161Z,87.40
2018-03-17T17:13:01.714Z,87.10
2018-03-17T17:15:28.294Z,86.70
2018-03-17T17:17:54.837Z,86.50
2018-03-17T17:20:21.987Z,87.00
2018-03-17T17:22:48.426Z,87.00
2018-03-17T17:25:15.666Z,87.60
2018-03-17T17:27:42.277Z,87.50
2018-03-17T17:30:08.862Z,87.30
2018-03-17T17:32:35.860Z,87.70
2018-03-17T17:35:02.378Z,87.80
2018-03-17T17:37:30.175Z,87.80
2018-03-17T17:39:56.807Z,87.70
2018-03-17T17:42:23.531Z,87.60
2018-03-17T17:44:50.792Z,87.90
2018-03-17T17:47:17.332Z,88.00
2018-03-17T17:49:43.815Z,88.30
2018-03-17T17:52:11.050Z,88.10
2018-03-17T17:54:41.562Z,87.90
2018-03-17T17:57:08.371Z,87.90
2018-03-17T17:59:35.703Z,88.90
2018-03-17T18:02:02.202Z,88.90
2018-03-17T18:04:28.825Z,89.40
2018-03-17T18:06:55.431Z,89.20
2018-03-17T18:09:21.963Z,88.70
2018-03-17T18:11:48.404Z,88.90
2018-03-17T18:14:14.911Z,88.90
2018-03-17T18:16:41.525Z,88.50
2018-03-17T18:19:08.216Z,88.20
2018-03-17T18:21:34.701Z,88.30
2018-03-17T18:24:01.211Z,88.60
2018-03-17T18:26:27.615Z,88.20
2018-03-17T18:28:54.049Z,88.60
2018-03-17T18:31:20.546Z,88.50
2018-03-17T18:33:47.058Z,88.50
2018-03-17T18:36:14.614Z,88.80
2018-03-17T18:38:41.032Z,88.50
2018-03-17T18:41:09.462Z,88.60
2018-03-17T18:43:35.928Z,88.50
2018-03-17T18:46:02.417Z,88.40
2018-03-17T18:48:29.377Z,87.80
2018-03-17T18:50:55.964Z,88.40
2018-03-17T18:53:23.026Z,88.60
2018-03-17T18:55:49.706Z,88.50
2018-03-17T18:58:16.116Z,88.70
2018-03-17T19:00:43.296Z,89.00
2018-03-17T19:03:09.850Z,89.00
2018-03-17T19:05:37.050Z,88.90
2018-03-17T19:08:03.923Z,88.90
2018-03-17T19:10:31.540Z,88.60
2018-03-17T19:12:58.800Z,88.60
2018-03-17T19:15:25.256Z,88.50
2018-03-17T19:17:52.466Z,89.20
2018-03-17T19:20:19.814Z,89.10
2018-03-17T19:22:46.549Z,89.60
2018-03-17T19:25:13.011Z,88.80
2018-03-17T19:27:39.476Z,88.90
2018-03-17T19:30:06.659Z,88.70
2018-03-17T19:32:33.155Z,89.00
2018-03-17T19:34:59.668Z,89.00
2018-03-17T19:37:30.989Z,88.70
2018-03-17T19:39:57.415Z,88.80
2018-03-17T19:42:24.108Z,88.60
2018-03-17T19:44:50.650Z,88.50
2018-03-17T19:47:17.420Z,88.40
2018-03-17T19:49:44.156Z,88.30
2018-03-17T19:52:10.593Z,88.50
2018-03-17T19:54:37.065Z,88.30
2018-03-17T19:57:03.641Z,88.30
2018-03-17T19:59:30.497Z,88.30
2018-03-17T20:01:57.665Z,88.40
2018-03-17T20:04:24.830Z,89.40
2018-03-17T20:06:51.727Z,88.40
2018-03-17T20:09:19.059Z,88.40
2018-03-17T20:13:21.149Z,88.10
2018-03-17T20:15:51.177Z,88.20
2018-03-17T20:18:17.799Z,88.70
2018-03-17T20:20:44.334Z,88.30
2018-03-17T20:23:12.149Z,87.90
2018-03-17T20:25:45.228Z,87.50
2018-03-17T20:28:11.896Z,87.90
2018-03-17T20:30:40.622Z,87.90
2018-03-17T20:33:08.597Z,87.50
2018-03-17T20:35:35.151Z,87.70
2018-03-17T20:38:01.907Z,87.50
2018-03-17T20:40:28.379Z,87.20
2018-03-17T20:42:55.960Z,87.00
2018-03-17T20:45:22.368Z,87.30
2018-03-17T20:47:48.872Z,87.70
2018-03-17T20:50:16.041Z,87.60
2018-03-17T20:52:42.586Z,87.60
2018-03-17T20:55:09.759Z,87.50
2018-03-17T20:57:36.966Z,87.40
2018-03-17T21:00:03.476Z,87.40
2018-03-17T21:02:31.313Z,87.90
2018-03-17T21:04:57.773Z,87.80
2018-03-17T21:07:24.204Z,88.80
2018-03-17T21:09:50.673Z,88.40
2018-03-17T21:12:17.084Z,88.10
2018-03-17T21:14:44.352Z,87.70
2018-03-17T21:17:10.899Z,87.80
2018-03-17T21:19:37.368Z,88.20
2018-03-17T21:22:04.853Z,88.10
2018-03-17T21:24:32.022Z,88.40
2018-03-17T21:26:59.249Z,87.80
2018-03-17T21:29:25.710Z,87.80
2018-03-17T21:31:52.162Z,87.90
2018-03-17T21:34:18.620Z,88.30
2018-03-17T21:36:45.243Z,88.00
2018-03-17T21:39:11.799Z,87.50
2018-03-17T21:41:38.955Z,87.30
2018-03-17T21:44:05.421Z,87.30
2018-03-17T21:46:32.613Z,87.60
2018-03-17T21:48:59.079Z,86.80
2018-03-17T21:51:25.520Z,87.50
2018-03-17T21:53:52.888Z,87.60
2018-03-17T21:56:19.378Z,87.80
2018-03-17T21:58:46.437Z,87.50
2018-03-17T22:01:12.955Z,87.40
2018-03-17T22:03:39.383Z,87.30
2018-03-17T22:06:06.559Z,87.40
2018-03-17T22:08:33.013Z,87.50
2018-03-17T22:11:00.539Z,87.30
2018-03-17T22:13:27.721Z,87.00
2018-03-17T22:15:55.344Z,86.90
2018-03-17T22:18:21.848Z,87.10
2018-03-17T22:20:49.126Z,87.00
2018-03-17T22:23:15.578Z,87.00
2018-03-17T22:25:42.810Z,87.70
2018-03-17T22:28:09.523Z,87.60
2018-03-17T22:30:36.079Z,87.30
2018-03-17T22:33:03.761Z,87.80
2018-03-17T22:35:32.700Z,87.90
2018-03-17T22:37:59.636Z,88.00
2018-03-17T22:40:28.360Z,87.60
2018-03-17T22:42:55.004Z,87.50
2018-03-17T22:45:22.558Z,87.10
2018-03-17T22:47:48.989Z,86.20
2018-03-17T22:50:16.071Z,87.20
2018-03-17T22:52:42.806Z,87.70
2018-03-17T22:55:09.433Z,87.30
2018-03-17T22:57:36.909Z,87.50
2018-03-17T23:00:03.574Z,87.40
2018-03-17T23:02:30.950Z,88.10
2018-03-17T23:04:57.490Z,88.10
2018-03-17T23:07:23.964Z,88.20
2018-03-17T23:09:51.157Z,87.60
2018-03-17T23:12:17.608Z,87.60
2018-03-17T23:14:44.101Z,87.70
2018-03-17T23:17:10.528Z,87.20
2018-03-17T23:19:36.967Z,86.90
2018-03-17T23:22:03.433Z,87.50
2018-03-17T23:24:29.975Z,87.40
2018-03-17T23:26:57.134Z,86.90
2018-03-17T23:29:25.426Z,86.40
2018-03-17T23:31:52.625Z,86.10
2018-03-17T23:34:19.179Z,86.20
2018-03-17T23:36:45.740Z,85.90
2018-03-17T23:39:12.295Z,86.00
2018-03-17T23:41:39.572Z,85.80
2018-03-17T23:44:06.062Z,85.70
2018-03-17T23:46:32.550Z,85.70
2018-03-17T23:48:59.060Z,86.20
2018-03-17T23:51:25.618Z,85.60
2018-03-17T23:53:52.710Z,85.60
2018-03-17T23:56:19.192Z,85.20
2018-03-17T23:58:45.698Z,84.90
